createdAt,value
2019-03-20T00:01:59.106Z,98.20
2019-03-20T00:04:29.833Z,95.50
2019-03-20T00:07:00.379Z,90.93
2019-03-20T00:09:30.996Z,81.13
2019-03-20T00:12:01.547Z,86.37
2019-03-20T00:14:32.079Z,96.87
2019-03-20T00:17:04.051Z,97.27
2019-03-20T00:19:34.725Z,95.97
2019-03-20T00:22:05.200Z,119.43
2019-03-20T00:24:35.729Z,108.87
2019-03-20T00:27:06.363Z,90.93
2019-03-20T00:29:36.897Z,90.20
2019-03-20T00:32:07.454Z,108.10
2019-03-20T00:34:37.975Z,96.93
2019-03-20T00:37:09.541Z,85.63
2019-03-20T00:39:40.041Z,90.67
2019-03-20T00:42:10.821Z,80.73
2019-03-20T00:44:41.344Z,82.40
2019-03-20T00:47:11.895Z,75.67
2019-03-20T00:49:42.415Z,72.97
2019-03-20T00:52:12.957Z,74.77
2019-03-20T00:54:43.487Z,72.50
2019-03-20T00:57:14.027Z,79.77
2019-03-20T00:59:44.552Z,77.83
2019-03-20T01:02:15.113Z,68.83
2019-03-20T01:04:46.662Z,73.43
2019-03-20T01:07:17.145Z,77.40
2019-03-20T01:09:47.596Z,75.67
2019-03-20T01:12:18.073Z,74.37
2019-03-20T01:14:48.521Z,76.37
2019-03-20T01:17:19.010Z,68.03
2019-03-20T01:19:49.450Z,70.40
2019-03-20T01:22:19.952Z,74.87
2019-03-20T01:24:50.461Z,79.17
2019-03-20T01:27:20.959Z,75.53
2019-03-20T01:29:51.417Z,75.90
2019-03-20T01:32:21.921Z,66.47
2019-03-20T01:34:52.446Z,76.13
2019-03-20T01:37:22.925Z,73.23
2019-03-20T01:39:53.380Z,75.43
2019-03-20T01:42:23.870Z,73.30
2019-03-20T01:44:54.397Z,61.73
2019-03-20T01:47:25.143Z,69.73
2019-03-20T01:49:55.607Z,71.83
2019-03-20T01:52:26.153Z,56.43
2019-03-20T01:54:56.581Z,66.47
2019-03-20T01:57:27.126Z,57.47
2019-03-20T01:59:57.657Z,67.87
2019-03-20T02:02:28.209Z,65.07
2019-03-20T02:04:58.667Z,70.30
2019-03-20T02:07:29.158Z,63.83
2019-03-20T02:09:59.688Z,66.87
2019-03-20T02:12:30.243Z,57.50
2019-03-20T02:15:00.687Z,63.97
2019-03-20T02:17:31.216Z,66.03
2019-03-20T02:20:01.748Z,58.23
2019-03-20T02:22:32.300Z,62.10
2019-03-20T02:25:04.647Z,59.07
2019-03-20T02:27:35.139Z,54.13
2019-03-20T02:30:11.911Z,56.53
2019-03-20T02:32:42.461Z,47.30
2019-03-20T02:35:13.268Z,45.83
2019-03-20T02:37:43.820Z,49.30
2019-03-20T02:40:15.129Z,51.80
2019-03-20T02:42:45.747Z,51.13
2019-03-20T02:45:16.840Z,47.33
2019-03-20T02:47:47.401Z,45.57
2019-03-20T02:50:17.863Z,46.17
2019-03-20T02:52:48.343Z,51.80
2019-03-20T02:55:18.860Z,62.57
2019-03-20T02:57:49.335Z,55.33
2019-03-20T03:00:20.823Z,55.93
2019-03-20T03:03:11.486Z,51.23
2019-03-20T03:05:42.001Z,52.80
2019-03-20T03:08:12.554Z,52.83
2019-03-20T03:10:43.015Z,51.53
2019-03-20T03:13:13.504Z,48.47
2019-03-20T03:15:43.981Z,53.43
2019-03-20T03:18:14.478Z,51.03
2019-03-20T03:20:46.005Z,53.53
2019-03-20T03:23:16.556Z,52.63
2019-03-20T03:25:49.926Z,58.87
2019-03-20T03:28:19.324Z,58.33
2019-03-20T03:30:49.848Z,60.87
2019-03-20T03:33:20.504Z,49.47
2019-03-20T03:35:51.127Z,56.80
2019-03-20T03:38:21.625Z,49.37
2019-03-20T03:40:52.079Z,45.23
2019-03-20T03:43:24.384Z,48.37
2019-03-20T03:45:54.823Z,58.03
2019-03-20T03:48:25.353Z,51.40
2019-03-20T03:50:55.798Z,50.37
2019-03-20T03:53:26.292Z,52.90
2019-03-20T03:55:56.829Z,53.13
2019-03-20T03:58:27.310Z,58.17
2019-03-20T04:00:57.807Z,56.87
2019-03-20T04:03:28.262Z,52.97
2019-03-20T04:05:58.804Z,51.50
2019-03-20T04:08:29.412Z,52.50
2019-03-20T04:10:59.844Z,50.60
2019-03-20T04:13:30.398Z,56.30
2019-03-20T04:16:01.010Z,55.60
2019-03-20T04:18:31.543Z,51.67
2019-03-20T04:21:02.004Z,56.57
2019-03-20T04:23:32.574Z,53.13
2019-03-20T04:26:03.021Z,51.87
2019-03-20T04:28:33.514Z,49.80
2019-03-20T04:31:04.086Z,52.13
2019-03-20T04:33:34.577Z,54.90
2019-03-20T04:36:05.111Z,50.13
2019-03-20T04:38:35.648Z,49.70
2019-03-20T04:41:06.107Z,58.10
2019-03-20T04:43:36.670Z,71.97
2019-03-20T04:46:07.217Z,123.07
2019-03-20T04:48:37.735Z,98.63
2019-03-20T04:51:08.191Z,104.60
2019-03-20T04:53:38.726Z,66.77
2019-03-20T04:56:09.189Z,46.33
2019-03-20T04:58:39.676Z,57.23
2019-03-20T05:01:10.190Z,49.57
2019-03-20T05:03:40.666Z,53.20
2019-03-20T05:06:11.186Z,45.10
2019-03-20T05:08:41.667Z,46.37
2019-03-20T05:11:12.116Z,44.40
2019-03-20T05:13:42.691Z,49.83
2019-03-20T05:16:13.143Z,43.63
2019-03-20T05:18:43.701Z,42.67
2019-03-20T05:21:14.170Z,43.83
2019-03-20T05:23:44.655Z,42.50
2019-03-20T05:26:15.178Z,47.70
2019-03-20T05:28:45.734Z,39.47
2019-03-20T05:31:16.252Z,44.10
2019-03-20T05:33:47.809Z,41.97
2019-03-20T05:36:18.258Z,52.43
2019-03-20T05:38:48.747Z,53.43
2019-03-20T05:41:19.261Z,55.60
2019-03-20T05:43:49.817Z,48.37
2019-03-20T05:46:20.355Z,51.93
2019-03-20T05:48:51.001Z,48.27
2019-03-20T05:51:21.528Z,49.83
2019-03-20T05:53:52.090Z,49.63
2019-03-20T05:56:22.553Z,42.93
2019-03-20T05:58:53.117Z,47.87
2019-03-20T06:01:23.776Z,39.20
2019-03-20T06:03:54.324Z,38.47
2019-03-20T06:06:24.785Z,46.10
2019-03-20T06:08:55.348Z,43.60
2019-03-20T06:11:25.791Z,42.00
2019-03-20T06:13:56.268Z,37.47
2019-03-20T06:16:26.791Z,43.77
2019-03-20T06:18:57.328Z,67.23
2019-03-20T06:21:28.144Z,40.53
2019-03-20T06:23:58.609Z,35.10
2019-03-20T06:26:29.114Z,41.97
2019-03-20T06:28:59.599Z,34.17
2019-03-20T06:31:30.109Z,39.40
2019-03-20T06:34:00.653Z,38.40
2019-03-20T06:36:31.177Z,49.93
2019-03-20T06:39:01.846Z,42.27
2019-03-20T06:41:32.886Z,43.20
2019-03-20T06:44:03.433Z,35.97
2019-03-20T06:46:33.869Z,38.53
2019-03-20T06:49:04.462Z,47.33
2019-03-20T06:51:36.605Z,49.43
2019-03-20T06:54:08.115Z,54.27
2019-03-20T06:56:38.550Z,49.10
2019-03-20T06:59:29.995Z,46.10
2019-03-20T07:02:03.614Z,40.53
2019-03-20T07:04:55.050Z,35.20
2019-03-20T07:07:43.676Z,36.50
2019-03-20T07:10:25.236Z,44.10
2019-03-20T07:12:55.748Z,41.57
2019-03-20T07:15:26.298Z,47.27
2019-03-20T07:17:56.739Z,44.73
2019-03-20T07:20:27.195Z,48.57
2019-03-20T07:22:57.703Z,34.87
2019-03-20T07:25:28.162Z,37.23
2019-03-20T07:27:58.683Z,38.00
2019-03-20T07:30:29.226Z,39.07
2019-03-20T07:32:59.838Z,41.53
2019-03-20T07:35:30.311Z,36.70
2019-03-20T07:38:00.833Z,37.30
2019-03-20T07:40:31.382Z,31.47
2019-03-20T07:43:08.632Z,31.13
2019-03-20T07:45:34.124Z,42.80
2019-03-20T07:48:04.608Z,32.60
2019-03-20T07:50:35.379Z,31.67
2019-03-20T07:53:05.799Z,31.40
2019-03-20T07:55:36.282Z,32.00
2019-03-20T07:58:06.754Z,30.57
2019-03-20T08:00:37.311Z,28.27
2019-03-20T08:03:07.754Z,32.43
2019-03-20T08:05:38.306Z,30.37
2019-03-20T08:08:08.756Z,27.87
2019-03-20T08:10:39.286Z,29.77
2019-03-20T08:13:09.734Z,35.23
2019-03-20T08:15:40.272Z,26.20
2019-03-20T08:18:10.767Z,32.87
2019-03-20T08:20:41.244Z,27.87
2019-03-20T08:23:11.683Z,24.87
2019-03-20T08:25:42.229Z,24.13
2019-03-20T08:28:12.729Z,24.57
2019-03-20T08:30:43.268Z,27.60
2019-03-20T08:33:13.757Z,26.77
2019-03-20T08:35:44.230Z,29.77
2019-03-20T08:38:18.702Z,29.80
2019-03-20T08:40:46.834Z,30.15
2019-03-20T08:43:17.255Z,22.17
2019-03-20T08:45:47.724Z,26.48
2019-03-20T08:48:18.165Z,20.27
2019-03-20T08:50:48.693Z,25.72
2019-03-20T08:53:20.190Z,28.83
2019-03-20T08:55:50.737Z,26.70
2019-03-20T08:58:21.444Z,19.67
2019-03-20T09:00:51.908Z,22.58
2019-03-20T09:03:22.394Z,20.97
2019-03-20T09:05:52.929Z,24.05
2019-03-20T09:08:29.411Z,14.63
2019-03-20T09:10:55.556Z,18.32
2019-03-20T09:13:25.989Z,13.05
2019-03-20T09:15:56.445Z,14.60
2019-03-20T09:18:26.938Z,13.55
2019-03-20T09:20:57.767Z,13.75
2019-03-20T09:23:28.178Z,15.68
2019-03-20T09:25:58.644Z,17.80
2019-03-20T09:28:29.056Z,11.10
2019-03-20T09:30:59.530Z,14.33
2019-03-20T09:33:30.011Z,9.93
2019-03-20T09:36:00.483Z,11.35
2019-03-20T09:38:42.721Z,16.52
2019-03-20T09:41:04.201Z,18.90
2019-03-20T09:43:34.684Z,10.88
2019-03-20T09:46:06.133Z,11.20
2019-03-20T09:48:36.956Z,14.65
2019-03-20T09:51:07.419Z,11.70
2019-03-20T09:53:39.269Z,10.93
2019-03-20T09:56:09.719Z,11.75
2019-03-20T09:58:40.217Z,13.83
2019-03-20T10:01:10.702Z,12.63
2019-03-20T10:03:41.126Z,11.35
2019-03-20T10:06:11.579Z,9.40
2019-03-20T10:08:41.989Z,9.28
2019-03-20T10:11:12.526Z,8.55
2019-03-20T10:13:42.943Z,10.88
2019-03-20T10:16:13.459Z,13.75
2019-03-20T10:18:43.899Z,7.78
2019-03-20T10:21:14.433Z,11.18
2019-03-20T10:23:44.851Z,18.70
2019-03-20T10:26:15.311Z,8.65
2019-03-20T10:28:45.717Z,5.70
2019-03-20T10:31:16.184Z,7.00
2019-03-20T10:33:46.593Z,8.95
2019-03-20T10:36:17.048Z,3.65
2019-03-20T10:38:48.684Z,8.28
2019-03-20T10:41:19.379Z,8.50
2019-03-20T10:43:52.251Z,8.03
2019-03-20T10:46:22.020Z,6.70
2019-03-20T10:48:52.755Z,6.85
2019-03-20T10:51:23.734Z,5.92
2019-03-20T10:53:54.315Z,5.15
2019-03-20T10:56:24.923Z,14.55
2019-03-20T10:58:55.537Z,8.78
2019-03-20T11:01:26.203Z,5.00
2019-03-20T11:03:56.690Z,3.45
2019-03-20T11:06:27.144Z,5.67
2019-03-20T11:08:57.555Z,3.55
2019-03-20T11:11:28.022Z,3.98
2019-03-20T11:13:58.435Z,4.50
2019-03-20T11:16:28.907Z,5.62
2019-03-20T11:18:59.326Z,7.12
2019-03-20T11:21:29.841Z,6.78
2019-03-20T11:24:00.254Z,7.72
2019-03-20T11:26:31.804Z,7.40
2019-03-20T11:29:02.225Z,8.08
2019-03-20T11:31:33.018Z,7.10
2019-03-20T11:34:03.501Z,5.40
2019-03-20T11:36:34.107Z,8.18
2019-03-20T11:39:07.953Z,9.78
2019-03-20T11:41:38.497Z,10.15
2019-03-20T11:44:08.998Z,27.52
2019-03-20T11:46:39.475Z,12.75
2019-03-20T11:49:10.344Z,8.70
2019-03-20T11:51:40.815Z,6.75
2019-03-20T11:54:11.234Z,17.60
2019-03-20T11:56:41.855Z,6.67
2019-03-20T11:59:12.270Z,6.53
2019-03-20T12:01:43.107Z,6.83
2019-03-20T12:04:13.542Z,12.88
2019-03-20T12:06:44.002Z,12.88
2019-03-20T12:09:14.419Z,8.10
2019-03-20T12:11:46.205Z,16.93
2019-03-20T12:14:16.834Z,4.42
2019-03-20T12:16:47.382Z,6.90
2019-03-20T12:19:17.857Z,7.37
2019-03-20T12:21:48.345Z,10.53
2019-03-20T12:24:18.834Z,8.85
2019-03-20T12:26:49.378Z,5.83
2019-03-20T12:29:19.802Z,9.85
2019-03-20T12:31:50.342Z,10.70
2019-03-20T12:34:20.771Z,7.42
2019-03-20T12:36:51.302Z,14.85
2019-03-20T12:39:22.787Z,6.05
2019-03-20T12:41:53.332Z,8.43
2019-03-20T12:44:23.749Z,8.18
2019-03-20T12:46:54.284Z,4.87
2019-03-20T12:49:24.994Z,7.10
2019-03-20T12:51:55.539Z,8.28
2019-03-20T12:54:25.965Z,6.03
2019-03-20T12:56:56.429Z,9.43
2019-03-20T12:59:26.859Z,6.12
2019-03-20T13:01:57.330Z,9.63
2019-03-20T13:04:27.739Z,6.95
2019-03-20T13:06:58.273Z,7.62
2019-03-20T13:09:28.777Z,7.55
2019-03-20T13:11:59.278Z,5.90
2019-03-20T13:14:29.696Z,8.55
2019-03-20T13:17:00.375Z,3.20
2019-03-20T13:19:31.025Z,4.50
2019-03-20T13:22:01.493Z,3.67
2019-03-20T13:24:31.922Z,7.20
2019-03-20T13:27:02.384Z,6.70
2019-03-20T13:29:32.799Z,8.70
2019-03-20T13:32:03.818Z,6.40
2019-03-20T13:34:34.410Z,7.12
2019-03-20T13:37:04.956Z,12.78
2019-03-20T13:39:35.447Z,6.55
2019-03-20T13:42:05.982Z,7.92
2019-03-20T13:44:36.476Z,4.05
2019-03-20T13:47:08.228Z,8.33
2019-03-20T13:49:38.901Z,13.05
2019-03-20T13:52:10.492Z,15.38
2019-03-20T13:54:41.000Z,8.83
2019-03-20T13:57:11.466Z,6.70
2019-03-20T13:59:41.953Z,5.65
2019-03-20T14:02:12.421Z,12.70
2019-03-20T14:04:42.847Z,10.05
2019-03-20T14:07:13.372Z,5.65
2019-03-20T14:09:43.868Z,8.23
2019-03-20T14:12:14.414Z,12.60
2019-03-20T14:14:44.835Z,6.30
2019-03-20T14:17:15.366Z,4.35
2019-03-20T14:19:45.795Z,7.35
2019-03-20T14:22:16.258Z,7.37
2019-03-20T14:24:46.687Z,19.67
2019-03-20T14:27:18.300Z,9.10
2019-03-20T14:29:48.721Z,4.97
2019-03-20T14:32:19.176Z,5.05
2019-03-20T14:34:49.677Z,5.35
2019-03-20T14:37:20.150Z,7.87
2019-03-20T14:39:50.744Z,6.40
2019-03-20T14:42:21.224Z,9.90
2019-03-20T14:44:51.876Z,12.85
2019-03-20T14:47:22.463Z,15.93
2019-03-20T14:49:52.969Z,10.40
2019-03-20T14:52:23.568Z,5.42
2019-03-20T14:54:54.028Z,7.08
2019-03-20T14:57:24.583Z,6.17
2019-03-20T14:59:55.071Z,9.55
2019-03-20T15:02:27.200Z,5.58
2019-03-20T15:04:58.607Z,4.53
2019-03-20T15:07:28.671Z,4.60
2019-03-20T15:09:59.155Z,4.12
2019-03-20T15:12:29.696Z,7.78
2019-03-20T15:15:00.292Z,6.72
2019-03-20T15:17:30.820Z,7.25
2019-03-20T15:20:02.310Z,5.70
2019-03-20T15:22:32.775Z,6.17
2019-03-20T15:25:03.213Z,4.60
2019-03-20T15:27:33.673Z,8.70
2019-03-20T15:30:13.121Z,7.67
2019-03-20T15:32:43.733Z,6.55
2019-03-20T15:35:14.156Z,6.00
2019-03-20T15:37:44.718Z,6.87
2019-03-20T15:40:21.179Z,4.85
2019-03-20T15:42:51.637Z,4.65
2019-03-20T15:45:22.197Z,9.03
2019-03-20T15:47:52.682Z,14.25
2019-03-20T15:50:29.425Z,6.15
2019-03-20T15:52:59.953Z,5.70
2019-03-20T15:55:36.113Z,8.33
2019-03-20T15:58:06.643Z,13.53
2019-03-20T16:00:37.131Z,8.03
2019-03-20T16:03:23.033Z,15.20
2019-03-20T16:05:53.541Z,12.85
2019-03-20T16:08:24.142Z,20.97
2019-03-20T16:10:54.590Z,22.55
2019-03-20T16:13:25.049Z,9.08
2019-03-20T16:15:55.480Z,8.38
2019-03-20T16:18:27.021Z,9.63
2019-03-20T16:20:57.483Z,12.37
2019-03-20T16:23:27.964Z,8.15
2019-03-20T16:25:58.383Z,5.42
2019-03-20T16:28:28.847Z,23.85
2019-03-20T16:30:59.292Z,36.03
2019-03-20T16:33:29.978Z,17.98
2019-03-20T16:36:00.419Z,29.20
2019-03-20T16:38:31.808Z,14.05
2019-03-20T16:41:02.299Z,8.78
2019-03-20T16:43:32.768Z,7.87
2019-03-20T16:46:03.257Z,4.97
2019-03-20T16:48:33.811Z,13.65
2019-03-20T16:51:04.394Z,7.67
2019-03-20T16:53:34.990Z,5.17
2019-03-20T16:56:05.495Z,6.30
2019-03-20T16:58:36.028Z,5.83
2019-03-20T17:01:06.529Z,7.70
2019-03-20T17:03:37.127Z,8.23
2019-03-20T17:06:07.574Z,9.55
2019-03-20T17:08:38.429Z,7.95
2019-03-20T17:11:08.937Z,11.45
2019-03-20T17:13:39.763Z,10.18
2019-03-20T17:16:10.213Z,55.48
2019-03-20T17:18:40.935Z,44.58
2019-03-20T17:21:11.518Z,43.85
2019-03-20T17:23:46.565Z,23.32
2019-03-20T17:26:17.011Z,27.37
2019-03-20T17:28:47.471Z,33.20
2019-03-20T17:31:17.976Z,67.85
2019-03-20T17:33:48.445Z,97.50
2019-03-20T17:36:18.904Z,104.17
2019-03-20T17:38:49.399Z,121.87
2019-03-20T17:41:19.928Z,109.15
2019-03-20T17:43:50.393Z,116.37
2019-03-20T17:46:20.966Z,106.00
2019-03-20T17:48:51.490Z,88.95
2019-03-20T17:51:22.064Z,78.12
2019-03-20T17:53:52.678Z,59.93
2019-03-20T17:56:23.195Z,57.48
2019-03-20T17:58:53.751Z,65.20
2019-03-20T18:01:25.835Z,58.30
2019-03-20T18:03:56.308Z,54.13
2019-03-20T18:06:26.892Z,40.45
2019-03-20T18:08:57.369Z,32.65
2019-03-20T18:11:27.819Z,46.20
2019-03-20T18:13:58.359Z,90.67
2019-03-20T18:16:28.869Z,65.10
2019-03-20T18:18:59.412Z,60.58
2019-03-20T18:21:29.828Z,58.33
2019-03-20T18:24:02.071Z,34.08
2019-03-20T18:26:32.604Z,27.67
2019-03-20T18:29:03.155Z,17.98
2019-03-20T18:31:33.633Z,14.73
2019-03-20T18:34:04.148Z,20.30
2019-03-20T18:36:34.658Z,23.10
2019-03-20T18:39:07.357Z,27.52
2019-03-20T18:41:37.812Z,32.88
2019-03-20T18:44:08.349Z,49.55
2019-03-20T18:46:38.861Z,45.12
2019-03-20T18:49:10.193Z,47.10
2019-03-20T18:51:42.103Z,43.90
2019-03-20T18:54:12.548Z,55.30
2019-03-20T18:56:43.001Z,44.95
2019-03-20T18:59:13.432Z,47.78
2019-03-20T19:01:43.875Z,63.35
2019-03-20T19:04:14.352Z,384.30
2019-03-20T19:06:44.950Z,351.80
2019-03-20T19:09:15.475Z,359.60
2019-03-20T19:11:46.084Z,279.30
2019-03-20T19:14:16.804Z,222.22
2019-03-20T19:16:47.339Z,172.93
2019-03-20T19:19:17.786Z,133.82
2019-03-20T19:21:48.366Z,140.47
2019-03-20T19:24:18.805Z,75.10
2019-03-20T19:26:49.395Z,51.90
2019-03-20T19:29:19.917Z,46.42
2019-03-20T19:31:50.361Z,32.05
2019-03-20T19:34:20.881Z,25.15
2019-03-20T19:36:51.321Z,19.90
2019-03-20T19:39:21.756Z,23.07
2019-03-20T19:41:52.211Z,26.52
2019-03-20T19:44:22.801Z,25.85
2019-03-20T19:46:53.275Z,47.17
2019-03-20T19:49:23.863Z,80.80
2019-03-20T19:51:54.414Z,42.50
2019-03-20T19:54:25.051Z,22.48
2019-03-20T19:56:56.096Z,27.67
2019-03-20T19:59:27.076Z,21.25
2019-03-20T20:01:59.468Z,23.38
2019-03-20T20:04:30.115Z,16.50
2019-03-20T20:07:01.114Z,17.98
2019-03-20T20:09:31.915Z,16.97
2019-03-20T20:12:02.391Z,14.10
2019-03-20T20:14:32.902Z,8.13
2019-03-20T20:17:03.503Z,9.40
2019-03-20T20:19:34.011Z,12.70
2019-03-20T20:22:04.552Z,14.35
2019-03-20T20:24:35.052Z,10.43
2019-03-20T20:27:10.877Z,15.03
2019-03-20T20:29:42.683Z,14.13
2019-03-20T20:32:13.418Z,15.98
2019-03-20T20:34:43.938Z,19.62
2019-03-20T20:37:15.513Z,16.00
2019-03-20T20:39:45.998Z,21.60
2019-03-20T20:42:16.548Z,19.87
2019-03-20T20:44:46.987Z,14.03
2019-03-20T20:47:17.450Z,17.57
2019-03-20T20:49:47.878Z,14.38
2019-03-20T20:52:19.912Z,13.20
2019-03-20T20:54:52.096Z,20.02
2019-03-20T20:57:23.157Z,13.68
2019-03-20T20:59:53.591Z,20.85
2019-03-20T21:02:24.033Z,13.90
2019-03-20T21:04:54.532Z,14.23
2019-03-20T21:07:26.616Z,17.65
2019-03-20T21:09:57.167Z,14.03
2019-03-20T21:12:27.643Z,17.00
2019-03-20T21:14:58.132Z,16.52
2019-03-20T21:17:31.874Z,16.32
2019-03-20T21:20:02.376Z,20.12
2019-03-20T21:22:36.156Z,16.30
2019-03-20T21:25:06.713Z,19.95
2019-03-20T21:28:06.381Z,24.75
2019-03-20T21:30:49.394Z,22.35
2019-03-20T21:33:27.125Z,21.52
2019-03-20T21:36:20.136Z,11.95
2019-03-20T21:38:51.562Z,13.70
2019-03-20T21:41:31.674Z,14.05
2019-03-20T21:44:25.153Z,14.50
2019-03-20T21:47:34.263Z,15.53
2019-03-20T21:50:21.339Z,14.95
2019-03-20T21:52:51.784Z,16.42
2019-03-20T21:55:28.076Z,14.05
2019-03-20T21:58:13.643Z,12.25
2019-03-20T22:00:50.026Z,15.55
2019-03-20T22:03:20.621Z,14.83
2019-03-20T22:06:06.527Z,17.10
2019-03-20T22:08:37.037Z,13.13
2019-03-20T22:11:16.086Z,12.45
2019-03-20T22:13:52.487Z,15.65
2019-03-20T22:16:35.294Z,10.43
2019-03-20T22:19:34.724Z,13.72
2019-03-20T22:22:44.681Z,14.83
2019-03-20T22:25:46.960Z,15.85
2019-03-20T22:28:47.770Z,14.70
2019-03-20T22:31:18.541Z,13.18
2019-03-20T22:34:25.636Z,19.27
2019-03-20T22:36:56.153Z,20.25
2019-03-20T22:39:57.950Z,14.20
2019-03-20T22:42:54.488Z,18.15
2019-03-20T22:45:39.994Z,13.72
2019-03-20T22:48:13.784Z,13.18
2019-03-20T22:51:05.676Z,18.02
2019-03-20T22:53:54.272Z,13.80
2019-03-20T22:56:57.051Z,13.72
2019-03-20T22:59:27.640Z,13.58
2019-03-20T23:02:07.863Z,13.53
2019-03-20T23:04:41.624Z,15.03
2019-03-20T23:07:12.074Z,14.47
2019-03-20T23:09:42.607Z,15.40
2019-03-20T23:12:14.065Z,13.75
2019-03-20T23:14:44.653Z,10.68
2019-03-20T23:17:15.268Z,14.85
2019-03-20T23:19:46.619Z,15.70
2019-03-20T23:22:17.187Z,11.05
2019-03-20T23:24:47.634Z,11.15
2019-03-20T23:27:24.126Z,12.82
2019-03-20T23:29:54.637Z,14.53
2019-03-20T23:32:25.329Z,13.55
2019-03-20T23:34:55.833Z,14.95
2019-03-20T23:37:26.581Z,15.05
2019-03-20T23:39:57.079Z,13.75
2019-03-20T23:42:27.613Z,17.25
2019-03-20T23:44:58.107Z,17.07
2019-03-20T23:47:31.912Z,14.35
2019-03-20T23:50:02.507Z,17.90
2019-03-20T23:52:33.138Z,17.10
2019-03-20T23:55:04.593Z,15.95
2019-03-20T23:57:35.118Z,12.45
